sensor_id;sensor_type;location;lat;lon;timestamp;temperature;humidity
4376;DHT22;2202;50.866;12.750;2023-05-20T00:00:43;11.70;87.20
4376;DHT22;2202;50.866;12.750;2023-05-20T00:03:10;11.70;87.60
4376;DHT22;2202;50.866;12.750;2023-05-20T00:05:37;11.70;87.80
4376;DHT22;2202;50.866;12.750;2023-05-20T00:08:04;11.60;88.00
4376;DHT22;2202;50.866;12.750;2023-05-20T00:10:33;11.60;88.00
4376;DHT22;2202;50.866;12.750;2023-05-20T00:13:00;11.60;88.20
4376;DHT22;2202;50.866;12.750;2023-05-20T00:15:27;11.60;88.40
4376;DHT22;2202;50.866;12.750;2023-05-20T00:17:55;11.50;88.60
4376;DHT22;2202;50.866;12.750;2023-05-20T00:20:22;11.50;89.00
4376;DHT22;2202;50.866;12.750;2023-05-20T00:22:49;11.50;89.00
4376;DHT22;2202;50.866;12.750;2023-05-20T00:25:16;11.50;89.20
4376;DHT22;2202;50.866;12.750;2023-05-20T00:27:43;11.50;89.20
4376;DHT22;2202;50.866;12.750;2023-05-20T00:30:11;11.50;89.00
4376;DHT22;2202;50.866;12.750;2023-05-20T00:32:38;11.50;89.20
4376;DHT22;2202;50.866;12.750;2023-05-20T00:35:07;11.40;89.60
4376;DHT22;2202;50.866;12.750;2023-05-20T00:37:35;11.40;90.00
4376;DHT22;2202;50.866;12.750;2023-05-20T00:40:02;11.40;89.80
4376;DHT22;2202;50.866;12.750;2023-05-20T00:42:29;11.40;90.00
4376;DHT22;2202;50.866;12.750;2023-05-20T00:44:56;11.40;90.10
4376;DHT22;2202;50.866;12.750;2023-05-20T00:47:25;11.40;90.10
4376;DHT22;2202;50.866;12.750;2023-05-20T00:49:54;11.30;90.10
4376;DHT22;2202;50.866;12.750;2023-05-20T00:52:23;11.40;90.20
4376;DHT22;2202;50.866;12.750;2023-05-20T00:54:51;11.40;90.20
4376;DHT22;2202;50.866;12.750;2023-05-20T00:57:18;11.40;90.10
4376;DHT22;2202;50.866;12.750;2023-05-20T00:59:46;11.40;90.10
4376;DHT22;2202;50.866;12.750;2023-05-20T01:02:13;11.30;90.20
4376;DHT22;2202;50.866;12.750;2023-05-20T01:04:40;11.30;90.20
4376;DHT22;2202;50.866;12.750;2023-05-20T01:07:12;11.30;90.30
4376;DHT22;2202;50.866;12.750;2023-05-20T01:09:40;11.30;90.30
4376;DHT22;2202;50.866;12.750;2023-05-20T01:12:12;11.20;90.50
4376;DHT22;2202;50.866;12.750;2023-05-20T01:14:45;11.20;90.50
4376;DHT22;2202;50.866;12.750;2023-05-20T01:17:14;11.10;90.70
4376;DHT22;2202;50.866;12.750;2023-05-20T01:19:43;11.10;90.70
4376;DHT22;2202;50.866;12.750;2023-05-20T01:22:12;11.10;90.70
4376;DHT22;2202;50.866;12.750;2023-05-20T01:24:42;11.20;90.50
4376;DHT22;2202;50.866;12.750;2023-05-20T01:27:10;11.20;90.50
4376;DHT22;2202;50.866;12.750;2023-05-20T01:29:38;11.20;90.60
4376;DHT22;2202;50.866;12.750;2023-05-20T01:32:07;11.10;90.70
4376;DHT22;2202;50.866;12.750;2023-05-20T01:34:36;11.10;90.80
4376;DHT22;2202;50.866;12.750;2023-05-20T01:37:05;11.20;90.70
4376;DHT22;2202;50.866;12.750;2023-05-20T01:39:35;11.10;90.80
4376;DHT22;2202;50.866;12.750;2023-05-20T01:42:08;11.10;91.00
4376;DHT22;2202;50.866;12.750;2023-05-20T01:44:36;11.00;91.00
4376;DHT22;2202;50.866;12.750;2023-05-20T01:47:03;11.00;91.20
4376;DHT22;2202;50.866;12.750;2023-05-20T01:49:30;11.00;91.30
4376;DHT22;2202;50.866;12.750;2023-05-20T01:51:57;11.10;91.10
4376;DHT22;2202;50.866;12.750;2023-05-20T01:54:24;11.10;91.20
4376;DHT22;2202;50.866;12.750;2023-05-20T01:56:51;11.10;91.10
4376;DHT22;2202;50.866;12.750;2023-05-20T01:59:19;11.00;91.30
4376;DHT22;2202;50.866;12.750;2023-05-20T02:01:46;10.90;91.50
4376;DHT22;2202;50.866;12.750;2023-05-20T02:04:12;11.00;91.60
4376;DHT22;2202;50.866;12.750;2023-05-20T02:06:39;11.00;91.50
4376;DHT22;2202;50.866;12.750;2023-05-20T02:09:06;10.90;91.50
4376;DHT22;2202;50.866;12.750;2023-05-20T02:11:33;10.90;91.50
4376;DHT22;2202;50.866;12.750;2023-05-20T02:14:00;10.80;91.60
4376;DHT22;2202;50.866;12.750;2023-05-20T02:16:28;10.80;91.90
4376;DHT22;2202;50.866;12.750;2023-05-20T02:18:55;10.70;92.00
4376;DHT22;2202;50.866;12.750;2023-05-20T02:21:23;10.80;91.80
4376;DHT22;2202;50.866;12.750;2023-05-20T02:23:50;10.70;91.70
4376;DHT22;2202;50.866;12.750;2023-05-20T02:26:17;10.70;91.80
4376;DHT22;2202;50.866;12.750;2023-05-20T02:28:45;10.70;91.80
4376;DHT22;2202;50.866;12.750;2023-05-20T02:31:15;10.60;92.10
4376;DHT22;2202;50.866;12.750;2023-05-20T02:33:43;10.50;92.30
4376;DHT22;2202;50.866;12.750;2023-05-20T02:36:10;10.50;92.40
4376;DHT22;2202;50.866;12.750;2023-05-20T02:38:36;10.40;92.60
4376;DHT22;2202;50.866;12.750;2023-05-20T02:41:03;10.30;92.80
4376;DHT22;2202;50.866;12.750;2023-05-20T02:43:31;10.30;92.80
4376;DHT22;2202;50.866;12.750;2023-05-20T02:45:58;10.20;92.90
4376;DHT22;2202;50.866;12.750;2023-05-20T02:48:25;10.10;93.40
4376;DHT22;2202;50.866;12.750;2023-05-20T02:50:53;10.10;93.60
4376;DHT22;2202;50.866;12.750;2023-05-20T02:53:20;10.10;93.50
4376;DHT22;2202;50.866;12.750;2023-05-20T02:55:47;10.10;93.50
4376;DHT22;2202;50.866;12.750;2023-05-20T02:58:14;10.10;93.70
4376;DHT22;2202;50.866;12.750;2023-05-20T03:00:41;10.00;93.80
4376;DHT22;2202;50.866;12.750;2023-05-20T03:03:09;10.00;94.00
4376;DHT22;2202;50.866;12.750;2023-05-20T03:05:36;10.00;94.10
4376;DHT22;2202;50.866;12.750;2023-05-20T03:08:07;9.90;94.20
4376;DHT22;2202;50.866;12.750;2023-05-20T03:10:35;9.90;94.30
4376;DHT22;2202;50.866;12.750;2023-05-20T03:13:02;9.90;94.20
4376;DHT22;2202;50.866;12.750;2023-05-20T03:15:29;9.80;94.70
4376;DHT22;2202;50.866;12.750;2023-05-20T03:17:56;9.90;94.70
4376;DHT22;2202;50.866;12.750;2023-05-20T03:20:23;9.90;94.70
4376;DHT22;2202;50.866;12.750;2023-05-20T03:22:51;9.90;94.50
4376;DHT22;2202;50.866;12.750;2023-05-20T03:25:20;9.90;94.70
4376;DHT22;2202;50.866;12.750;2023-05-20T03:27:47;9.80;94.80
4376;DHT22;2202;50.866;12.750;2023-05-20T03:30:14;9.80;95.00
4376;DHT22;2202;50.866;12.750;2023-05-20T03:32:42;9.80;95.10
4376;DHT22;2202;50.866;12.750;2023-05-20T03:35:09;9.80;95.00
4376;DHT22;2202;50.866;12.750;2023-05-20T03:37:36;9.80;95.00
4376;DHT22;2202;50.866;12.750;2023-05-20T03:40:03;9.80;95.10
4376;DHT22;2202;50.866;12.750;2023-05-20T03:42:33;9.80;95.20
4376;DHT22;2202;50.866;12.750;2023-05-20T03:44:59;9.70;95.20
4376;DHT22;2202;50.866;12.750;2023-05-20T03:47:26;9.70;95.40
4376;DHT22;2202;50.866;12.750;2023-05-20T03:49:53;9.70;95.40
4376;DHT22;2202;50.866;12.750;2023-05-20T03:52:20;9.80;95.20
4376;DHT22;2202;50.866;12.750;2023-05-20T03:54:47;9.80;95.10
4376;DHT22;2202;50.866;12.750;2023-05-20T03:57:14;9.80;95.20
4376;DHT22;2202;50.866;12.750;2023-05-20T03:59:42;9.80;95.00
4376;DHT22;2202;50.866;12.750;2023-05-20T04:02:09;9.80;95.10
4376;DHT22;2202;50.866;12.750;2023-05-20T04:04:36;9.80;95.40
4376;DHT22;2202;50.866;12.750;2023-05-20T04:07:03;9.90;95.20
4376;DHT22;2202;50.866;12.750;2023-05-20T04:09:32;9.80;95.10
4376;DHT22;2202;50.866;12.750;2023-05-20T04:11:59;9.80;95.40
4376;DHT22;2202;50.866;12.750;2023-05-20T04:14:26;9.80;95.30
4376;DHT22;2202;50.866;12.750;2023-05-20T04:16:54;9.90;95.10
4376;DHT22;2202;50.866;12.750;2023-05-20T04:19:21;9.90;95.10
4376;DHT22;2202;50.866;12.750;2023-05-20T04:21:48;9.90;95.00
4376;DHT22;2202;50.866;12.750;2023-05-20T04:24:15;10.00;94.90
4376;DHT22;2202;50.866;12.750;2023-05-20T04:26:42;10.00;95.00
4376;DHT22;2202;50.866;12.750;2023-05-20T04:29:08;10.00;95.00
4376;DHT22;2202;50.866;12.750;2023-05-20T04:31:36;10.00;95.10
4376;DHT22;2202;50.866;12.750;2023-05-20T04:34:04;10.00;94.90
4376;DHT22;2202;50.866;12.750;2023-05-20T04:36:31;10.00;94.90
4376;DHT22;2202;50.866;12.750;2023-05-20T04:38:59;10.10;94.80
4376;DHT22;2202;50.866;12.750;2023-05-20T04:41:26;10.10;94.60
4376;DHT22;2202;50.866;12.750;2023-05-20T04:43:53;10.10;94.60
4376;DHT22;2202;50.866;12.750;2023-05-20T04:46:24;10.10;94.60
4376;DHT22;2202;50.866;12.750;2023-05-20T04:48:51;10.10;94.70
4376;DHT22;2202;50.866;12.750;2023-05-20T04:51:19;10.10;94.70
4376;DHT22;2202;50.866;12.750;2023-05-20T04:53:46;10.10;94.70
4376;DHT22;2202;50.866;12.750;2023-05-20T04:56:15;10.10;94.60
4376;DHT22;2202;50.866;12.750;2023-05-20T04:58:42;10.20;94.60
4376;DHT22;2202;50.866;12.750;2023-05-20T05:01:09;10.30;94.40
4376;DHT22;2202;50.866;12.750;2023-05-20T05:03:35;10.30;94.40
4376;DHT22;2202;50.866;12.750;2023-05-20T05:06:02;10.40;94.30
4376;DHT22;2202;50.866;12.750;2023-05-20T05:08:31;10.40;94.20
4376;DHT22;2202;50.866;12.750;2023-05-20T05:10:57;10.50;94.00
4376;DHT22;2202;50.866;12.750;2023-05-20T05:13:24;10.40;93.80
4376;DHT22;2202;50.866;12.750;2023-05-20T05:15:57;10.50;93.70
4376;DHT22;2202;50.866;12.750;2023-05-20T05:18:25;10.40;93.70
4376;DHT22;2202;50.866;12.750;2023-05-20T05:20:58;10.50;93.80
4376;DHT22;2202;50.866;12.750;2023-05-20T05:23:25;10.50;93.70
4376;DHT22;2202;50.866;12.750;2023-05-20T05:25:53;10.50;93.80
4376;DHT22;2202;50.866;12.750;2023-05-20T05:28:20;10.60;93.80
4376;DHT22;2202;50.866;12.750;2023-05-20T05:30:47;10.70;93.70
4376;DHT22;2202;50.866;12.750;2023-05-20T05:33:14;10.70;93.50
4376;DHT22;2202;50.866;12.750;2023-05-20T05:35:42;10.80;93.50
4376;DHT22;2202;50.866;12.750;2023-05-20T05:38:09;10.90;93.30
4376;DHT22;2202;50.866;12.750;2023-05-20T05:40:36;11.10;93.10
4376;DHT22;2202;50.866;12.750;2023-05-20T05:43:04;11.20;92.70
4376;DHT22;2202;50.866;12.750;2023-05-20T05:45:31;11.20;92.40
4376;DHT22;2202;50.866;12.750;2023-05-20T05:47:58;11.20;92.40
4376;DHT22;2202;50.866;12.750;2023-05-20T05:50:24;11.30;92.30
4376;DHT22;2202;50.866;12.750;2023-05-20T05:52:51;11.30;92.20
4376;DHT22;2202;50.866;12.750;2023-05-20T05:55:18;11.40;92.10
4376;DHT22;2202;50.866;12.750;2023-05-20T05:57:45;11.50;91.90
4376;DHT22;2202;50.866;12.750;2023-05-20T06:00:14;11.60;91.80
4376;DHT22;2202;50.866;12.750;2023-05-20T06:02:42;11.60;91.70
4376;DHT22;2202;50.866;12.750;2023-05-20T06:05:09;11.60;91.70
4376;DHT22;2202;50.866;12.750;2023-05-20T06:07:36;11.70;91.50
4376;DHT22;2202;50.866;12.750;2023-05-20T06:10:03;11.70;91.60
4376;DHT22;2202;50.866;12.750;2023-05-20T06:12:30;11.90;91.80
4376;DHT22;2202;50.866;12.750;2023-05-20T06:14:57;12.10;91.30
4376;DHT22;2202;50.866;12.750;2023-05-20T06:17:25;12.20;90.70
4376;DHT22;2202;50.866;12.750;2023-05-20T06:19:52;12.40;90.30
4376;DHT22;2202;50.866;12.750;2023-05-20T06:22:19;12.60;89.00
4376;DHT22;2202;50.866;12.750;2023-05-20T06:24:46;12.60;88.80
4376;DHT22;2202;50.866;12.750;2023-05-20T06:27:13;12.60;89.20
4376;DHT22;2202;50.866;12.750;2023-05-20T06:29:40;12.70;87.60
4376;DHT22;2202;50.866;12.750;2023-05-20T06:32:07;12.70;88.00
4376;DHT22;2202;50.866;12.750;2023-05-20T06:34:35;12.70;88.00
4376;DHT22;2202;50.866;12.750;2023-05-20T06:37:02;12.90;88.00
4376;DHT22;2202;50.866;12.750;2023-05-20T06:39:29;13.00;86.80
4376;DHT22;2202;50.866;12.750;2023-05-20T06:41:56;13.10;86.40
4376;DHT22;2202;50.866;12.750;2023-05-20T06:44:23;13.20;86.20
4376;DHT22;2202;50.866;12.750;2023-05-20T06:46:50;13.20;84.80
4376;DHT22;2202;50.866;12.750;2023-05-20T06:49:16;13.10;85.00
4376;DHT22;2202;50.866;12.750;2023-05-20T06:51:45;13.10;85.40
4376;DHT22;2202;50.866;12.750;2023-05-20T06:54:12;13.00;85.60
4376;DHT22;2202;50.866;12.750;2023-05-20T06:56:39;12.90;86.00
4376;DHT22;2202;50.866;12.750;2023-05-20T06:59:05;12.90;86.00
4376;DHT22;2202;50.866;12.750;2023-05-20T07:01:33;12.70;86.60
4376;DHT22;2202;50.866;12.750;2023-05-20T07:04:00;12.60;87.60
4376;DHT22;2202;50.866;12.750;2023-05-20T07:06:27;12.60;88.20
4376;DHT22;2202;50.866;12.750;2023-05-20T07:08:56;12.60;88.40
4376;DHT22;2202;50.866;12.750;2023-05-20T07:11:23;12.60;89.20
4376;DHT22;2202;50.866;12.750;2023-05-20T07:13:50;12.70;88.80
4376;DHT22;2202;50.866;12.750;2023-05-20T07:16:17;12.80;88.40
4376;DHT22;2202;50.866;12.750;2023-05-20T07:18:44;12.90;88.00
4376;DHT22;2202;50.866;12.750;2023-05-20T07:21:11;13.00;87.00
4376;DHT22;2202;50.866;12.750;2023-05-20T07:23:38;13.10;87.00
4376;DHT22;2202;50.866;12.750;2023-05-20T07:26:06;13.20;86.60
4376;DHT22;2202;50.866;12.750;2023-05-20T07:28:33;13.40;86.00
4376;DHT22;2202;50.866;12.750;2023-05-20T07:31:01;13.60;85.80
4376;DHT22;2202;50.866;12.750;2023-05-20T07:33:28;14.00;84.60
4376;DHT22;2202;50.866;12.750;2023-05-20T07:35:55;14.20;83.40
4376;DHT22;2202;50.866;12.750;2023-05-20T07:38:22;14.40;81.80
4376;DHT22;2202;50.866;12.750;2023-05-20T07:40:48;14.70;82.60
4376;DHT22;2202;50.866;12.750;2023-05-20T07:43:18;15.00;80.20
4376;DHT22;2202;50.866;12.750;2023-05-20T07:45:45;15.40;78.00
4376;DHT22;2202;50.866;12.750;2023-05-20T07:48:12;15.70;75.00
4376;DHT22;2202;50.866;12.750;2023-05-20T07:50:39;15.50;76.00
4376;DHT22;2202;50.866;12.750;2023-05-20T07:53:06;15.70;75.20
4376;DHT22;2202;50.866;12.750;2023-05-20T07:55:33;15.80;74.20
4376;DHT22;2202;50.866;12.750;2023-05-20T07:58:00;15.80;74.80
4376;DHT22;2202;50.866;12.750;2023-05-20T08:00:28;16.00;74.40
4376;DHT22;2202;50.866;12.750;2023-05-20T08:02:56;16.30;73.40
4376;DHT22;2202;50.866;12.750;2023-05-20T08:05:22;16.50;73.20
4376;DHT22;2202;50.866;12.750;2023-05-20T08:07:49;16.70;73.20
4376;DHT22;2202;50.866;12.750;2023-05-20T08:10:16;16.60;69.20
4376;DHT22;2202;50.866;12.750;2023-05-20T08:12:43;16.50;74.00
4376;DHT22;2202;50.866;12.750;2023-05-20T08:15:10;17.00;71.80
4376;DHT22;2202;50.866;12.750;2023-05-20T08:17:39;17.20;68.20
4376;DHT22;2202;50.866;12.750;2023-05-20T08:20:06;17.20;69.00
4376;DHT22;2202;50.866;12.750;2023-05-20T08:22:35;17.30;67.60
4376;DHT22;2202;50.866;12.750;2023-05-20T08:25:02;17.20;67.80
4376;DHT22;2202;50.866;12.750;2023-05-20T08:27:29;17.40;70.60
4376;DHT22;2202;50.866;12.750;2023-05-20T08:29:56;17.70;66.80
4376;DHT22;2202;50.866;12.750;2023-05-20T08:32:23;17.80;66.20
4376;DHT22;2202;50.866;12.750;2023-05-20T08:34:51;17.80;66.20
4376;DHT22;2202;50.866;12.750;2023-05-20T08:37:18;18.10;66.40
4376;DHT22;2202;50.866;12.750;2023-05-20T08:39:45;18.30;64.80
4376;DHT22;2202;50.866;12.750;2023-05-20T08:42:13;18.60;64.20
4376;DHT22;2202;50.866;12.750;2023-05-20T08:44:43;18.70;62.00
4376;DHT22;2202;50.866;12.750;2023-05-20T08:47:11;18.80;59.00
4376;DHT22;2202;50.866;12.750;2023-05-20T08:49:38;18.80;62.60
4376;DHT22;2202;50.866;12.750;2023-05-20T08:52:08;18.70;61.20
4376;DHT22;2202;50.866;12.750;2023-05-20T08:54:42;18.90;62.80
4376;DHT22;2202;50.866;12.750;2023-05-20T08:57:10;19.10;59.00
4376;DHT22;2202;50.866;12.750;2023-05-20T08:59:39;19.00;61.40
4376;DHT22;2202;50.866;12.750;2023-05-20T09:02:07;19.20;60.80
4376;DHT22;2202;50.866;12.750;2023-05-20T09:04:34;18.80;60.10
4376;DHT22;2202;50.866;12.750;2023-05-20T09:07:01;18.80;62.40
4376;DHT22;2202;50.866;12.750;2023-05-20T09:09:32;19.10;60.40
4376;DHT22;2202;50.866;12.750;2023-05-20T09:11:59;19.30;60.80
4376;DHT22;2202;50.866;12.750;2023-05-20T09:14:27;19.40;58.50
4376;DHT22;2202;50.866;12.750;2023-05-20T09:16:54;19.30;61.20
4376;DHT22;2202;50.866;12.750;2023-05-20T09:19:21;19.60;62.00
4376;DHT22;2202;50.866;12.750;2023-05-20T09:21:51;19.80;61.20
4376;DHT22;2202;50.866;12.750;2023-05-20T09:24:21;19.80;58.00
4376;DHT22;2202;50.866;12.750;2023-05-20T09:26:50;19.60;59.20
4376;DHT22;2202;50.866;12.750;2023-05-20T09:29:17;19.80;58.30
4376;DHT22;2202;50.866;12.750;2023-05-20T09:31:44;19.80;57.80
4376;DHT22;2202;50.866;12.750;2023-05-20T09:34:11;19.80;59.00
4376;DHT22;2202;50.866;12.750;2023-05-20T09:36:39;19.80;58.30
4376;DHT22;2202;50.866;12.750;2023-05-20T09:39:12;19.80;58.70
4376;DHT22;2202;50.866;12.750;2023-05-20T09:41:46;19.70;57.40
4376;DHT22;2202;50.866;12.750;2023-05-20T09:44:17;19.40;59.80
4376;DHT22;2202;50.866;12.750;2023-05-20T09:46:45;19.30;61.40
4376;DHT22;2202;50.866;12.750;2023-05-20T09:49:12;19.60;62.40
4376;DHT22;2202;50.866;12.750;2023-05-20T09:51:40;20.00;61.60
4376;DHT22;2202;50.866;12.750;2023-05-20T09:54:08;20.30;56.20
4376;DHT22;2202;50.866;12.750;2023-05-20T09:56:37;20.20;57.80
4376;DHT22;2202;50.866;12.750;2023-05-20T09:59:05;20.00;56.70
4376;DHT22;2202;50.866;12.750;2023-05-20T10:01:33;19.80;59.40
4376;DHT22;2202;50.866;12.750;2023-05-20T10:04:01;19.70;60.40
4376;DHT22;2202;50.866;12.750;2023-05-20T10:07:06;19.90;60.40
4376;DHT22;2202;50.866;12.750;2023-05-20T10:09:46;20.20;59.00
4376;DHT22;2202;50.866;12.750;2023-05-20T10:12:26;20.40;58.70
4376;DHT22;2202;50.866;12.750;2023-05-20T10:15:03;20.60;56.60
4376;DHT22;2202;50.866;12.750;2023-05-20T10:17:43;20.60;58.50
4376;DHT22;2202;50.866;12.750;2023-05-20T10:20:12;20.70;58.70
4376;DHT22;2202;50.866;12.750;2023-05-20T10:22:39;20.90;57.30
4376;DHT22;2202;50.866;12.750;2023-05-20T10:25:10;21.00;55.00
4376;DHT22;2202;50.866;12.750;2023-05-20T10:27:43;20.80;57.30
4376;DHT22;2202;50.866;12.750;2023-05-20T10:30:18;20.50;57.80
4376;DHT22;2202;50.866;12.750;2023-05-20T10:32:52;20.40;59.40
4376;DHT22;2202;50.866;12.750;2023-05-20T10:35:22;20.50;59.90
4376;DHT22;2202;50.866;12.750;2023-05-20T10:37:51;21.00;59.40
4376;DHT22;2202;50.866;12.750;2023-05-20T10:40:19;21.20;57.60
4376;DHT22;2202;50.866;12.750;2023-05-20T10:42:46;21.20;57.40
4376;DHT22;2202;50.866;12.750;2023-05-20T10:45:24;21.30;54.80
4376;DHT22;2202;50.866;12.750;2023-05-20T10:47:57;21.30;56.90
4376;DHT22;2202;50.866;12.750;2023-05-20T10:50:28;21.40;56.90
4376;DHT22;2202;50.866;12.750;2023-05-20T10:53:02;21.30;58.00
4376;DHT22;2202;50.866;12.750;2023-05-20T10:55:35;21.40;57.30
4376;DHT22;2202;50.866;12.750;2023-05-20T10:58:03;21.40;56.40
4376;DHT22;2202;50.866;12.750;2023-05-20T11:00:30;21.60;55.50
4376;DHT22;2202;50.866;12.750;2023-05-20T11:02:59;21.50;55.50
4376;DHT22;2202;50.866;12.750;2023-05-20T11:05:26;21.60;56.70
4376;DHT22;2202;50.866;12.750;2023-05-20T11:07:59;21.80;57.10
4376;DHT22;2202;50.866;12.750;2023-05-20T11:10:26;21.90;55.00
4376;DHT22;2202;50.866;12.750;2023-05-20T11:12:54;22.00;55.30
4376;DHT22;2202;50.866;12.750;2023-05-20T11:15:22;22.10;55.10
4376;DHT22;2202;50.866;12.750;2023-05-20T11:17:53;22.10;53.50
4376;DHT22;2202;50.866;12.750;2023-05-20T11:20:22;22.00;56.20
4376;DHT22;2202;50.866;12.750;2023-05-20T11:22:49;22.00;55.90
4376;DHT22;2202;50.866;12.750;2023-05-20T11:25:17;22.10;55.50
4376;DHT22;2202;50.866;12.750;2023-05-20T11:27:44;21.90;54.60
4376;DHT22;2202;50.866;12.750;2023-05-20T11:30:12;21.80;56.90
4376;DHT22;2202;50.866;12.750;2023-05-20T11:32:41;21.90;55.10
4376;DHT22;2202;50.866;12.750;2023-05-20T11:35:21;22.00;55.30
4376;DHT22;2202;50.866;12.750;2023-05-20T11:37:54;21.90;55.00
4376;DHT22;2202;50.866;12.750;2023-05-20T11:40:23;21.40;58.00
4376;DHT22;2202;50.866;12.750;2023-05-20T11:42:53;21.70;59.40
4376;DHT22;2202;50.866;12.750;2023-05-20T11:45:20;22.10;56.00
4376;DHT22;2202;50.866;12.750;2023-05-20T11:47:57;22.30;54.80
4376;DHT22;2202;50.866;12.750;2023-05-20T11:50:25;22.20;57.40
4376;DHT22;2202;50.866;12.750;2023-05-20T11:52:56;22.50;55.00
4376;DHT22;2202;50.866;12.750;2023-05-20T11:55:23;22.60;53.50
4376;DHT22;2202;50.866;12.750;2023-05-20T11:57:50;22.60;52.70
4376;DHT22;2202;50.866;12.750;2023-05-20T12:00:17;22.60;53.40
4376;DHT22;2202;50.866;12.750;2023-05-20T12:02:44;22.70;55.10
4376;DHT22;2202;50.866;12.750;2023-05-20T12:05:11;22.70;54.40
4376;DHT22;2202;50.866;12.750;2023-05-20T12:07:39;22.80;54.60
4376;DHT22;2202;50.866;12.750;2023-05-20T12:10:07;22.90;53.40
4376;DHT22;2202;50.866;12.750;2023-05-20T12:12:34;22.90;53.00
4376;DHT22;2202;50.866;12.750;2023-05-20T12:15:02;22.70;53.40
4376;DHT22;2202;50.866;12.750;2023-05-20T12:17:30;22.80;53.40
4376;DHT22;2202;50.866;12.750;2023-05-20T12:19:56;23.00;53.50
4376;DHT22;2202;50.866;12.750;2023-05-20T12:22:24;23.40;51.10
4376;DHT22;2202;50.866;12.750;2023-05-20T12:24:52;23.30;52.80
4376;DHT22;2202;50.866;12.750;2023-05-20T12:27:18;23.30;52.80
4376;DHT22;2202;50.866;12.750;2023-05-20T12:29:45;23.40;52.30
4376;DHT22;2202;50.866;12.750;2023-05-20T12:32:12;23.50;51.40
4376;DHT22;2202;50.866;12.750;2023-05-20T12:34:39;23.50;52.80
4376;DHT22;2202;50.866;12.750;2023-05-20T12:37:06;23.50;52.10
4376;DHT22;2202;50.866;12.750;2023-05-20T12:39:33;23.20;51.90
4376;DHT22;2202;50.866;12.750;2023-05-20T12:42:01;22.90;53.00
4376;DHT22;2202;50.866;12.750;2023-05-20T12:44:28;22.90;53.50
4376;DHT22;2202;50.866;12.750;2023-05-20T12:46:55;22.70;52.50
4376;DHT22;2202;50.866;12.750;2023-05-20T12:49:21;22.60;54.10
4376;DHT22;2202;50.866;12.750;2023-05-20T12:51:48;22.40;55.90
4376;DHT22;2202;50.866;12.750;2023-05-20T12:54:16;22.50;57.60
4376;DHT22;2202;50.866;12.750;2023-05-20T12:56:44;22.60;54.10
4376;DHT22;2202;50.866;12.750;2023-05-20T12:59:13;22.50;55.00
4376;DHT22;2202;50.866;12.750;2023-05-20T13:01:40;22.50;54.60
4376;DHT22;2202;50.866;12.750;2023-05-20T13:04:07;22.50;54.80
4376;DHT22;2202;50.866;12.750;2023-05-20T13:06:34;22.40;53.50
4376;DHT22;2202;50.866;12.750;2023-05-20T13:09:01;22.20;54.40
4376;DHT22;2202;50.866;12.750;2023-05-20T13:11:27;22.30;56.40
4376;DHT22;2202;50.866;12.750;2023-05-20T13:13:55;22.60;55.50
4376;DHT22;2202;50.866;12.750;2023-05-20T13:16:23;22.60;55.10
4376;DHT22;2202;50.866;12.750;2023-05-20T13:18:50;22.60;55.90
4376;DHT22;2202;50.866;12.750;2023-05-20T13:21:18;22.70;55.00
4376;DHT22;2202;50.866;12.750;2023-05-20T13:23:45;22.90;54.60
4376;DHT22;2202;50.866;12.750;2023-05-20T13:26:12;23.40;53.20
4376;DHT22;2202;50.866;12.750;2023-05-20T13:28:39;23.60;51.80
4376;DHT22;2202;50.866;12.750;2023-05-20T13:31:06;23.80;52.30
4376;DHT22;2202;50.866;12.750;2023-05-20T13:33:34;24.00;52.70
4376;DHT22;2202;50.866;12.750;2023-05-20T13:36:01;24.10;51.90
4376;DHT22;2202;50.866;12.750;2023-05-20T13:38:28;24.30;50.70
4376;DHT22;2202;50.866;12.750;2023-05-20T13:40:55;24.40;51.90
4376;DHT22;2202;50.866;12.750;2023-05-20T13:43:23;24.50;51.40
4376;DHT22;2202;50.866;12.750;2023-05-20T13:45:51;24.50;52.10
4376;DHT22;2202;50.866;12.750;2023-05-20T13:48:18;24.50;50.70
4376;DHT22;2202;50.866;12.750;2023-05-20T13:50:46;24.70;48.80
4376;DHT22;2202;50.866;12.750;2023-05-20T13:53:13;24.60;48.40
4376;DHT22;2202;50.866;12.750;2023-05-20T13:55:40;24.40;48.60
4376;DHT22;2202;50.866;12.750;2023-05-20T13:58:08;23.90;52.70
4376;DHT22;2202;50.866;12.750;2023-05-20T14:00:34;23.60;52.10
4376;DHT22;2202;50.866;12.750;2023-05-20T14:03:01;23.30;54.30
4376;DHT22;2202;50.866;12.750;2023-05-20T14:05:29;23.20;54.30
4376;DHT22;2202;50.866;12.750;2023-05-20T14:07:58;23.50;52.80
4376;DHT22;2202;50.866;12.750;2023-05-20T14:10:25;23.40;53.70
4376;DHT22;2202;50.866;12.750;2023-05-20T14:12:53;23.20;52.10
4376;DHT22;2202;50.866;12.750;2023-05-20T14:15:20;23.10;54.10
4376;DHT22;2202;50.866;12.750;2023-05-20T14:17:47;23.00;53.40
4376;DHT22;2202;50.866;12.750;2023-05-20T14:20:15;22.70;55.00
4376;DHT22;2202;50.866;12.750;2023-05-20T14:22:42;22.60;54.30
4376;DHT22;2202;50.866;12.750;2023-05-20T14:25:10;22.40;55.90
4376;DHT22;2202;50.866;12.750;2023-05-20T14:27:37;22.50;55.70
4376;DHT22;2202;50.866;12.750;2023-05-20T14:30:05;22.40;56.00
4376;DHT22;2202;50.866;12.750;2023-05-20T14:32:32;22.50;56.60
4376;DHT22;2202;50.866;12.750;2023-05-20T14:34:59;22.80;54.30
4376;DHT22;2202;50.866;12.750;2023-05-20T14:37:26;23.00;54.10
4376;DHT22;2202;50.866;12.750;2023-05-20T14:39:52;22.90;54.40
4376;DHT22;2202;50.866;12.750;2023-05-20T14:42:21;22.60;54.60
4376;DHT22;2202;50.866;12.750;2023-05-20T14:44:48;22.50;56.60
4376;DHT22;2202;50.866;12.750;2023-05-20T14:47:15;22.60;56.40
4376;DHT22;2202;50.866;12.750;2023-05-20T14:49:44;22.80;55.00
4376;DHT22;2202;50.866;12.750;2023-05-20T14:52:11;22.90;55.30
4376;DHT22;2202;50.866;12.750;2023-05-20T14:54:38;23.00;53.50
4376;DHT22;2202;50.866;12.750;2023-05-20T14:57:05;23.00;54.60
4376;DHT22;2202;50.866;12.750;2023-05-20T14:59:33;23.10;54.40
4376;DHT22;2202;50.866;12.750;2023-05-20T15:02:00;23.00;55.70
4376;DHT22;2202;50.866;12.750;2023-05-20T15:04:27;23.10;54.80
4376;DHT22;2202;50.866;12.750;2023-05-20T15:06:54;22.90;54.80
4376;DHT22;2202;50.866;12.750;2023-05-20T15:09:21;22.70;55.10
4376;DHT22;2202;50.866;12.750;2023-05-20T15:11:47;22.40;58.20
4376;DHT22;2202;50.866;12.750;2023-05-20T15:14:14;22.40;58.00
4376;DHT22;2202;50.866;12.750;2023-05-20T15:16:42;22.20;59.90
4376;DHT22;2202;50.866;12.750;2023-05-20T15:19:11;22.10;61.20
4376;DHT22;2202;50.866;12.750;2023-05-20T15:21:38;21.90;63.60
4376;DHT22;2202;50.866;12.750;2023-05-20T15:24:05;21.70;61.00
4376;DHT22;2202;50.866;12.750;2023-05-20T15:26:32;21.60;63.00
4376;DHT22;2202;50.866;12.750;2023-05-20T15:28:59;21.60;63.20
4376;DHT22;2202;50.866;12.750;2023-05-20T15:31:25;21.70;62.60
4376;DHT22;2202;50.866;12.750;2023-05-20T15:33:54;21.80;60.80
4376;DHT22;2202;50.866;12.750;2023-05-20T15:36:21;21.70;61.20
4376;DHT22;2202;50.866;12.750;2023-05-20T15:38:48;21.70;60.40
4376;DHT22;2202;50.866;12.750;2023-05-20T15:41:15;21.50;61.00
4376;DHT22;2202;50.866;12.750;2023-05-20T15:43:41;21.60;61.80
4376;DHT22;2202;50.866;12.750;2023-05-20T15:46:09;21.80;61.40
4376;DHT22;2202;50.866;12.750;2023-05-20T15:48:36;22.00;60.10
4376;DHT22;2202;50.866;12.750;2023-05-20T15:51:05;22.00;58.90